sensor_id;sensor_type;location;lat;lon;timestamp;pressure;altitude;pressure_sealevel;temperature;humidity
56292;BME280;54008;53.606;9.462;2022-09-09T00:00:47;100964.56;;;13.22;100.00
56292;BME280;54008;53.606;9.462;2022-09-09T00:03:17;100976.69;;;13.21;100.00
56292;BME280;54008;53.606;9.462;2022-09-09T00:08:20;100972.19;;;13.15;100.00
56292;BME280;54008;53.606;9.462;2022-09-09T00:10:53;100981.78;;;13.12;100.00
56292;BME280;54008;53.606;9.462;2022-09-09T00:13:26;100971.34;;;13.14;100.00
56292;BME280;54008;53.606;9.462;2022-09-09T00:16:21;100969.19;;;13.16;100.00
56292;BME280;54008;53.606;9.462;2022-09-09T00:18:51;100967.25;;;13.17;100.00
56292;BME280;54008;53.606;9.462;2022-09-09T00:21:30;100971.94;;;13.16;100.00
56292;BME280;54008;53.606;9.462;2022-09-09T00:23:58;100968.41;;;13.21;100.00
56292;BME280;54008;53.606;9.462;2022-09-09T00:26:38;100955.75;;;13.20;100.00
56292;BME280;54008;53.606;9.462;2022-09-09T00:29:43;100961.50;;;13.18;100.00
56292;BME280;54008;53.606;9.462;2022-09-09T00:32:16;100955.41;;;13.16;100.00
56292;BME280;54008;53.606;9.462;2022-09-09T00:34:55;100951.56;;;13.17;100.00
56292;BME280;54008;53.606;9.462;2022-09-09T00:37:22;100953.75;;;13.15;100.00
56292;BME280;54008;53.606;9.462;2022-09-09T00:39:53;100957.00;;;13.12;100.00
56292;BME280;54008;53.606;9.462;2022-09-09T00:42:37;100954.75;;;13.09;100.00
56292;BME280;54008;53.606;9.462;2022-09-09T00:47:45;100948.31;;;13.03;100.00
56292;BME280;54008;53.606;9.462;2022-09-09T00:53:30;100944.03;;;12.96;100.00
56292;BME280;54008;53.606;9.462;2022-09-09T00:56:18;100937.97;;;12.94;100.00
56292;BME280;54008;53.606;9.462;2022-09-09T00:59:24;100943.41;;;12.89;100.00
56292;BME280;54008;53.606;9.462;2022-09-09T01:01:53;100937.91;;;12.89;100.00
56292;BME280;54008;53.606;9.462;2022-09-09T01:04:27;100940.06;;;12.86;100.00
56292;BME280;54008;53.606;9.462;2022-09-09T01:07:04;100942.72;;;12.81;100.00
56292;BME280;54008;53.606;9.462;2022-09-09T01:09:45;100942.97;;;12.80;100.00
56292;BME280;54008;53.606;9.462;2022-09-09T01:12:23;100954.72;;;12.75;100.00
56292;BME280;54008;53.606;9.462;2022-09-09T01:15:10;100945.88;;;12.73;100.00
56292;BME280;54008;53.606;9.462;2022-09-09T01:20:19;100952.38;;;12.67;100.00
56292;BME280;54008;53.606;9.462;2022-09-09T01:26:05;100943.63;;;12.70;100.00
56292;BME280;54008;53.606;9.462;2022-09-09T01:28:34;100950.19;;;12.69;100.00
56292;BME280;54008;53.606;9.462;2022-09-09T01:31:03;100949.97;;;12.71;100.00
56292;BME280;54008;53.606;9.462;2022-09-09T01:33:29;100946.28;;;12.65;100.00
56292;BME280;54008;53.606;9.462;2022-09-09T01:35:59;100946.03;;;12.67;100.00
56292;BME280;54008;53.606;9.462;2022-09-09T01:38:27;100940.53;;;12.67;100.00
56292;BME280;54008;53.606;9.462;2022-09-09T01:40:53;100939.38;;;12.63;100.00
56292;BME280;54008;53.606;9.462;2022-09-09T01:43:22;100929.19;;;12.63;100.00
56292;BME280;54008;53.606;9.462;2022-09-09T01:45:51;100928.03;;;12.59;100.00
56292;BME280;54008;53.606;9.462;2022-09-09T01:48:19;100938.19;;;12.58;100.00
56292;BME280;54008;53.606;9.462;2022-09-09T01:50:45;100932.34;;;12.55;100.00
56292;BME280;54008;53.606;9.462;2022-09-09T01:53:11;100935.34;;;12.53;100.00
56292;BME280;54008;53.606;9.462;2022-09-09T01:55:39;100930.84;;;12.47;100.00
56292;BME280;54008;53.606;9.462;2022-09-09T02:03:59;100936.66;;;12.51;100.00
56292;BME280;54008;53.606;9.462;2022-09-09T02:06:38;100928.75;;;12.54;100.00
56292;BME280;54008;53.606;9.462;2022-09-09T02:09:06;100922.00;;;12.62;100.00
56292;BME280;54008;53.606;9.462;2022-09-09T02:11:33;100924.53;;;12.64;100.00
56292;BME280;54008;53.606;9.462;2022-09-09T02:14:03;100932.19;;;12.61;100.00
56292;BME280;54008;53.606;9.462;2022-09-09T02:16:54;100933.34;;;12.66;100.00
56292;BME280;54008;53.606;9.462;2022-09-09T02:19:50;100931.69;;;12.65;100.00
56292;BME280;54008;53.606;9.462;2022-09-09T02:22:19;100930.84;;;12.64;100.00
56292;BME280;54008;53.606;9.462;2022-09-09T02:24:47;100930.50;;;12.60;100.00
56292;BME280;54008;53.606;9.462;2022-09-09T02:27:16;100923.59;;;12.58;100.00
56292;BME280;54008;53.606;9.462;2022-09-09T02:29:43;100923.00;;;12.56;100.00
56292;BME280;54008;53.606;9.462;2022-09-09T02:32:15;100924.09;;;12.55;100.00
56292;BME280;54008;53.606;9.462;2022-09-09T02:34:49;100918.81;;;12.53;100.00
56292;BME280;54008;53.606;9.462;2022-09-09T02:37:17;100916.91;;;12.54;100.00
56292;BME280;54008;53.606;9.462;2022-09-09T02:39:43;100913.31;;;12.53;100.00
56292;BME280;54008;53.606;9.462;2022-09-09T02:42:09;100915.50;;;12.51;100.00
56292;BME280;54008;53.606;9.462;2022-09-09T02:44:35;100910.00;;;12.51;100.00
56292;BME280;54008;53.606;9.462;2022-09-09T02:50:25;100913.47;;;12.47;100.00
56292;BME280;54008;53.606;9.462;2022-09-09T02:53:02;100913.41;;;12.42;100.00
56292;BME280;54008;53.606;9.462;2022-09-09T02:55:48;100906.13;;;12.35;100.00
56292;BME280;54008;53.606;9.462;2022-09-09T02:58:17;100904.94;;;12.31;100.00
56292;BME280;54008;53.606;9.462;2022-09-09T03:00:45;100917.03;;;12.30;100.00
56292;BME280;54008;53.606;9.462;2022-09-09T03:03:11;100924.13;;;12.26;100.00
56292;BME280;54008;53.606;9.462;2022-09-09T03:05:36;100920.75;;;12.24;100.00
56292;BME280;54008;53.606;9.462;2022-09-09T03:08:03;100915.88;;;12.26;100.00
56292;BME280;54008;53.606;9.462;2022-09-09T03:10:28;100913.94;;;12.27;100.00
56292;BME280;54008;53.606;9.462;2022-09-09T03:12:53;100909.75;;;12.24;100.00
56292;BME280;54008;53.606;9.462;2022-09-09T03:15:20;100916.94;;;12.25;100.00
56292;BME280;54008;53.606;9.462;2022-09-09T03:17:46;100918.63;;;12.26;100.00
56292;BME280;54008;53.606;9.462;2022-09-09T03:20:12;100920.75;;;12.24;100.00
56292;BME280;54008;53.606;9.462;2022-09-09T03:22:38;100924.13;;;12.26;100.00
56292;BME280;54008;53.606;9.462;2022-09-09T03:25:03;100919.09;;;12.23;100.00
56292;BME280;54008;53.606;9.462;2022-09-09T03:27:29;100924.25;;;12.20;100.00
56292;BME280;54008;53.606;9.462;2022-09-09T03:29:54;100922.34;;;12.20;100.00
56292;BME280;54008;53.606;9.462;2022-09-09T03:32:20;100915.78;;;12.21;100.00
56292;BME280;54008;53.606;9.462;2022-09-09T03:34:48;100920.06;;;12.17;100.00
56292;BME280;54008;53.606;9.462;2022-09-09T03:37:15;100918.41;;;12.16;100.00
56292;BME280;54008;53.606;9.462;2022-09-09T03:39:40;100929.06;;;12.12;100.00
56292;BME280;54008;53.606;9.462;2022-09-09T03:42:06;100916.66;;;12.10;100.00
56292;BME280;54008;53.606;9.462;2022-09-09T03:44:31;100918.91;;;12.13;100.00
56292;BME280;54008;53.606;9.462;2022-09-09T03:46:56;100916.66;;;12.10;100.00
56292;BME280;54008;53.606;9.462;2022-09-09T03:49:22;100929.91;;;12.13;100.00
56292;BME280;54008;53.606;9.462;2022-09-09T03:51:47;100922.53;;;12.02;100.00
56292;BME280;54008;53.606;9.462;2022-09-09T03:54:13;100922.72;;;12.12;100.00
56292;BME280;54008;53.606;9.462;2022-09-09T03:56:38;100932.06;;;12.11;100.00
56292;BME280;54008;53.606;9.462;2022-09-09T03:59:04;100928.72;;;12.09;100.00
56292;BME280;54008;53.606;9.462;2022-09-09T04:01:30;100932.22;;;12.04;100.00
56292;BME280;54008;53.606;9.462;2022-09-09T04:03:55;100938.31;;;12.06;100.00
56292;BME280;54008;53.606;9.462;2022-09-09T04:06:23;100934.34;;;12.02;100.00
56292;BME280;54008;53.606;9.462;2022-09-09T04:08:49;100925.53;;;12.00;100.00
56292;BME280;54008;53.606;9.462;2022-09-09T04:11:15;100926.38;;;12.01;100.00
56292;BME280;54008;53.606;9.462;2022-09-09T04:13:41;100934.97;;;12.04;100.00
56292;BME280;54008;53.606;9.462;2022-09-09T04:16:09;100933.28;;;12.03;100.00
56292;BME280;54008;53.606;9.462;2022-09-09T04:18:35;100941.19;;;12.00;100.00
56292;BME280;54008;53.606;9.462;2022-09-09T04:21:01;100932.22;;;12.04;100.00
56292;BME280;54008;53.606;9.462;2022-09-09T04:23:27;100922.88;;;12.05;100.00
56292;BME280;54008;53.606;9.462;2022-09-09T04:25:57;100923.22;;;12.09;100.00
56292;BME280;54008;53.606;9.462;2022-09-09T04:28:24;100934.56;;;12.12;100.00
56292;BME280;54008;53.606;9.462;2022-09-09T04:30:50;100928.56;;;12.16;100.00
56292;BME280;54008;53.606;9.462;2022-09-09T04:33:16;100942.34;;;12.16;100.00
56292;BME280;54008;53.606;9.462;2022-09-09T04:35:47;100937.31;;;12.12;100.00
56292;BME280;54008;53.606;9.462;2022-09-09T04:38:13;100941.59;;;12.20;100.00
56292;BME280;54008;53.606;9.462;2022-09-09T04:40:38;100936.91;;;12.21;100.00
56292;BME280;54008;53.606;9.462;2022-09-09T04:43:08;100938.84;;;12.20;100.00
56292;BME280;54008;53.606;9.462;2022-09-09T04:45:33;100936.91;;;12.21;100.00
56292;BME280;54008;53.606;9.462;2022-09-09T04:47:59;100947.91;;;12.21;100.00
56292;BME280;54008;53.606;9.462;2022-09-09T04:50:24;100955.13;;;12.22;100.00
56292;BME280;54008;53.606;9.462;2022-09-09T04:52:49;100953.19;;;12.22;100.00
56292;BME280;54008;53.606;9.462;2022-09-09T04:55:15;100954.84;;;12.23;100.00
56292;BME280;54008;53.606;9.462;2022-09-09T04:57:40;100962.28;;;12.23;100.00
56292;BME280;54008;53.606;9.462;2022-09-09T05:00:07;100952.38;;;12.22;100.00
56292;BME280;54008;53.606;9.462;2022-09-09T05:02:32;100964.19;;;12.22;100.00
56292;BME280;54008;53.606;9.462;2022-09-09T05:04:58;100954.94;;;12.28;100.00
56292;BME280;54008;53.606;9.462;2022-09-09T05:07:24;100958.22;;;12.25;100.00
56292;BME280;54008;53.606;9.462;2022-09-09T05:09:51;100966.06;;;12.33;100.00
56292;BME280;54008;53.606;9.462;2022-09-09T05:12:16;100965.59;;;12.36;100.00
56292;BME280;54008;53.606;9.462;2022-09-09T05:14:42;100970.09;;;12.43;100.00
56292;BME280;54008;53.606;9.462;2022-09-09T05:17:09;100974.63;;;12.49;100.00
56292;BME280;54008;53.606;9.462;2022-09-09T05:19:35;100975.44;;;12.49;100.00
56292;BME280;54008;53.606;9.462;2022-09-09T05:22:00;100972.19;;;12.52;100.00
56292;BME280;54008;53.606;9.462;2022-09-09T05:24:26;100981.97;;;12.60;100.00
56292;BME280;54008;53.606;9.462;2022-09-09T05:26:51;100983.41;;;12.63;100.00
56292;BME280;54008;53.606;9.462;2022-09-09T05:29:17;100978.25;;;12.66;100.00
56292;BME280;54008;53.606;9.462;2022-09-09T05:31:45;100976.75;;;12.75;100.00
56292;BME280;54008;53.606;9.462;2022-09-09T05:34:10;100981.03;;;13.00;100.00
56292;BME280;54008;53.606;9.462;2022-09-09T05:36:36;100986.44;;;12.95;100.00
56292;BME280;54008;53.606;9.462;2022-09-09T05:39:02;100992.44;;;12.92;100.00
56292;BME280;54008;53.606;9.462;2022-09-09T05:41:27;100994.50;;;12.84;100.00
56292;BME280;54008;53.606;9.462;2022-09-09T05:43:54;100999.53;;;12.88;100.00
56292;BME280;54008;53.606;9.462;2022-09-09T05:46:21;100999.22;;;13.01;100.00
56292;BME280;54008;53.606;9.462;2022-09-09T05:48:48;101002.13;;;12.94;100.00
56292;BME280;54008;53.606;9.462;2022-09-09T05:51:21;101005.16;;;12.93;100.00
56292;BME280;54008;53.606;9.462;2022-09-09T05:53:47;101008.47;;;12.95;100.00
56292;BME280;54008;53.606;9.462;2022-09-09T05:56:18;101008.47;;;12.95;100.00
56292;BME280;54008;53.606;9.462;2022-09-09T05:58:45;101004.63;;;12.96;100.00
56292;BME280;54008;53.606;9.462;2022-09-09T06:01:23;101013.50;;;12.98;100.00
56292;BME280;54008;53.606;9.462;2022-09-09T06:03:50;101006.66;;;13.00;100.00
56292;BME280;54008;53.606;9.462;2022-09-09T06:06:19;101011.34;;;13.00;100.00
56292;BME280;54008;53.606;9.462;2022-09-09T06:08:49;101010.59;;;13.04;100.00
56292;BME280;54008;53.606;9.462;2022-09-09T06:11:24;101020.16;;;13.02;100.00
56292;BME280;54008;53.606;9.462;2022-09-09T06:13:50;101013.06;;;13.06;100.00
56292;BME280;54008;53.606;9.462;2022-09-09T06:16:21;101008.50;;;13.12;100.00
56292;BME280;54008;53.606;9.462;2022-09-09T06:18:49;101019.25;;;13.13;100.00
56292;BME280;54008;53.606;9.462;2022-09-09T06:21:20;101014.34;;;13.15;100.00
56292;BME280;54008;53.606;9.462;2022-09-09T06:23:47;101016.84;;;13.17;100.00
56292;BME280;54008;53.606;9.462;2022-09-09T06:26:15;101020.31;;;13.24;100.00
56292;BME280;54008;53.606;9.462;2022-09-09T06:28:43;101016.72;;;13.23;100.00
56292;BME280;54008;53.606;9.462;2022-09-09T06:31:11;101017.78;;;13.22;100.00
56292;BME280;54008;53.606;9.462;2022-09-09T06:33:38;101016.78;;;13.28;100.00
56292;BME280;54008;53.606;9.462;2022-09-09T06:36:11;101017.06;;;13.27;100.00
56292;BME280;54008;53.606;9.462;2022-09-09T06:38:37;101017.38;;;13.30;100.00
56292;BME280;54008;53.606;9.462;2022-09-09T06:41:03;101014.63;;;13.30;100.00
56292;BME280;54008;53.606;9.462;2022-09-09T06:43:30;101019.72;;;13.39;100.00
56292;BME280;54008;53.606;9.462;2022-09-09T06:45:58;101022.22;;;13.40;100.00
56292;BME280;54008;53.606;9.462;2022-09-09T06:48:24;101020.88;;;13.43;100.00
56292;BME280;54008;53.606;9.462;2022-09-09T06:51:07;101020.06;;;13.42;100.00
56292;BME280;54008;53.606;9.462;2022-09-09T06:53:34;101020.38;;;13.46;100.00
56292;BME280;54008;53.606;9.462;2022-09-09T06:56:20;101029.81;;;13.50;100.00
56292;BME280;54008;53.606;9.462;2022-09-09T06:58:48;101023.81;;;13.53;100.00
56292;BME280;54008;53.606;9.462;2022-09-09T07:01:16;101031.03;;;13.59;100.00
56292;BME280;54008;53.606;9.462;2022-09-09T07:03:45;101022.53;;;13.61;100.00
56292;BME280;54008;53.606;9.462;2022-09-09T07:06:28;101025.38;;;13.66;100.00
56292;BME280;54008;53.606;9.462;2022-09-09T07:08:58;101029.03;;;13.71;100.00
56292;BME280;54008;53.606;9.462;2022-09-09T07:11:24;101034.19;;;13.85;100.00
56292;BME280;54008;53.606;9.462;2022-09-09T07:13:52;101039.25;;;13.93;100.00
56292;BME280;54008;53.606;9.462;2022-09-09T07:16:18;101043.22;;;13.97;100.00
56292;BME280;54008;53.606;9.462;2022-09-09T07:18:45;101043.81;;;14.04;100.00
56292;BME280;54008;53.606;9.462;2022-09-09T07:21:12;101038.63;;;14.07;100.00
56292;BME280;54008;53.606;9.462;2022-09-09T07:23:38;101049.50;;;14.14;100.00
56292;BME280;54008;53.606;9.462;2022-09-09T07:26:15;101047.88;;;14.18;100.00
56292;BME280;54008;53.606;9.462;2022-09-09T07:28:41;101043.28;;;14.24;100.00
56292;BME280;54008;53.606;9.462;2022-09-09T07:31:08;101032.88;;;14.31;100.00
56292;BME280;54008;53.606;9.462;2022-09-09T07:33:39;101035.19;;;14.39;100.00
56292;BME280;54008;53.606;9.462;2022-09-09T07:36:09;101036.41;;;14.48;100.00
56292;BME280;54008;53.606;9.462;2022-09-09T07:38:40;101034.81;;;14.52;100.00
56292;BME280;54008;53.606;9.462;2022-09-09T07:41:07;101038.47;;;14.58;100.00
56292;BME280;54008;53.606;9.462;2022-09-09T07:43:37;101039.25;;;14.75;100.00
56292;BME280;54008;53.606;9.462;2022-09-09T07:46:02;101032.94;;;15.12;100.00
56292;BME280;54008;53.606;9.462;2022-09-09T07:48:28;101032.91;;;15.07;100.00
56292;BME280;54008;53.606;9.462;2022-09-09T07:51:03;101031.81;;;15.08;100.00
56292;BME280;54008;53.606;9.462;2022-09-09T07:53:29;101037.81;;;15.00;100.00
56292;BME280;54008;53.606;9.462;2022-09-09T07:56:02;101035.34;;;15.03;100.00
56292;BME280;54008;53.606;9.462;2022-09-09T07:58:28;101035.78;;;15.17;100.00
56292;BME280;54008;53.606;9.462;2022-09-09T08:00:53;101032.88;;;15.02;100.00
56292;BME280;54008;53.606;9.462;2022-09-09T08:03:18;101030.09;;;15.02;100.00
56292;BME280;54008;53.606;9.462;2022-09-09T08:05:45;101032.81;;;14.97;100.00
56292;BME280;54008;53.606;9.462;2022-09-09T08:08:10;101038.41;;;15.02;100.00
56292;BME280;54008;53.606;9.462;2022-09-09T08:10:35;101032.34;;;15.05;100.00
56292;BME280;54008;53.606;9.462;2022-09-09T08:13:01;101036.81;;;15.11;100.00
56292;BME280;54008;53.606;9.462;2022-09-09T08:15:26;101034.13;;;15.16;100.00
56292;BME280;54008;53.606;9.462;2022-09-09T08:17:52;101034.13;;;15.16;100.00
56292;BME280;54008;53.606;9.462;2022-09-09T08:20:17;101039.63;;;15.16;100.00
56292;BME280;54008;53.606;9.462;2022-09-09T08:22:43;101026.97;;;15.20;100.00
56292;BME280;54008;53.606;9.462;2022-09-09T08:25:08;101024.53;;;15.29;100.00
56292;BME280;54008;53.606;9.462;2022-09-09T08:27:35;101036.44;;;15.35;100.00
56292;BME280;54008;53.606;9.462;2022-09-09T08:30:00;101035.94;;;15.38;100.00
56292;BME280;54008;53.606;9.462;2022-09-09T08:32:25;101033.44;;;15.36;100.00
56292;BME280;54008;53.606;9.462;2022-09-09T08:34:51;101036.50;;;15.40;100.00
56292;BME280;54008;53.606;9.462;2022-09-09T08:37:16;101033.75;;;15.40;100.00
56292;BME280;54008;53.606;9.462;2022-09-09T08:39:42;101024.22;;;15.63;100.00
56292;BME280;54008;53.606;9.462;2022-09-09T08:42:20;101032.75;;;15.56;100.00
56292;BME280;54008;53.606;9.462;2022-09-09T08:50:32;101030.50;;;15.90;100.00
56292;BME280;54008;53.606;9.462;2022-09-09T08:53:28;101032.59;;;16.20;100.00
56292;BME280;54008;53.606;9.462;2022-09-09T08:55:59;101025.81;;;16.54;100.00
56292;BME280;54008;53.606;9.462;2022-09-09T08:58:28;101024.53;;;16.77;100.00
56292;BME280;54008;53.606;9.462;2022-09-09T09:01:00;101017.28;;;16.70;100.00
56292;BME280;54008;53.606;9.462;2022-09-09T09:11:40;101000.47;;;17.18;100.00
56292;BME280;54008;53.606;9.462;2022-09-09T09:14:19;100992.72;;;17.40;100.00
56292;BME280;54008;53.606;9.462;2022-09-09T09:16:58;100990.19;;;17.39;100.00
56292;BME280;54008;53.606;9.462;2022-09-09T09:19:26;100984.91;;;17.78;100.00
56292;BME280;54008;53.606;9.462;2022-09-09T09:22:00;100980.75;;;17.76;100.00
56292;BME280;54008;53.606;9.462;2022-09-09T09:24:54;100974.47;;;18.20;100.00
56292;BME280;54008;53.606;9.462;2022-09-09T09:27:30;100960.06;;;18.07;100.00
56292;BME280;54008;53.606;9.462;2022-09-09T09:29:56;100961.66;;;18.29;100.00
56292;BME280;54008;53.606;9.462;2022-09-09T09:32:24;100963.22;;;18.50;100.00
56292;BME280;54008;53.606;9.462;2022-09-09T09:34:57;100958.25;;;18.42;100.00
56292;BME280;54008;53.606;9.462;2022-09-09T09:37:28;100961.69;;;18.18;100.00
56292;BME280;54008;53.606;9.462;2022-09-09T09:39:54;100965.09;;;18.05;100.00
56292;BME280;54008;53.606;9.462;2022-09-09T09:42:19;100974.00;;;18.02;100.00
56292;BME280;54008;53.606;9.462;2022-09-09T09:44:45;100967.84;;;18.10;100.00
56292;BME280;54008;53.606;9.462;2022-09-09T09:47:13;100965.72;;;17.87;100.00
56292;BME280;54008;53.606;9.462;2022-09-09T09:49:39;100972.41;;;17.76;100.00
56292;BME280;54008;53.606;9.462;2022-09-09T09:52:05;100971.81;;;17.74;100.00
56292;BME280;54008;53.606;9.462;2022-09-09T09:54:39;100981.25;;;17.93;100.00
56292;BME280;54008;53.606;9.462;2022-09-09T09:57:11;100984.34;;;17.71;100.00
56292;BME280;54008;53.606;9.462;2022-09-09T09:59:38;100980.47;;;17.57;100.00
56292;BME280;54008;53.606;9.462;2022-09-09T10:04:40;100981.88;;;17.29;100.00
56292;BME280;54008;53.606;9.462;2022-09-09T10:07:17;100987.16;;;17.35;100.00
56292;BME280;54008;53.606;9.462;2022-09-09T10:09:43;100987.97;;;17.66;100.00
56292;BME280;54008;53.606;9.462;2022-09-09T10:15:11;100973.44;;;18.05;100.00
56292;BME280;54008;53.606;9.462;2022-09-09T10:20:50;100979.34;;;18.43;100.00
56292;BME280;54008;53.606;9.462;2022-09-09T10:26:24;100956.06;;;18.39;100.00
56292;BME280;54008;53.606;9.462;2022-09-09T10:29:05;100956.06;;;18.39;100.00
56292;BME280;54008;53.606;9.462;2022-09-09T10:31:52;100952.41;;;18.44;100.00
56292;BME280;54008;53.606;9.462;2022-09-09T10:37:05;100937.53;;;18.24;100.00
56292;BME280;54008;53.606;9.462;2022-09-09T10:39:37;100945.47;;;18.46;100.00
56292;BME280;54008;53.606;9.462;2022-09-09T10:42:09;100947.16;;;18.42;100.00
56292;BME280;54008;53.606;9.462;2022-09-09T10:47:31;100950.59;;;18.68;100.00
56292;BME280;54008;53.606;9.462;2022-09-09T10:50:12;100946.94;;;18.78;100.00
56292;BME280;54008;53.606;9.462;2022-09-09T10:55:40;100947.84;;;18.63;100.00
56292;BME280;54008;53.606;9.462;2022-09-09T10:58:14;100952.00;;;18.65;100.00
56292;BME280;54008;53.606;9.462;2022-09-09T11:00:44;100949.19;;;18.71;100.00
56292;BME280;54008;53.606;9.462;2022-09-09T11:03:17;100946.59;;;18.40;100.00
56292;BME280;54008;53.606;9.462;2022-09-09T11:06:13;100952.84;;;18.16;100.00
56292;BME280;54008;53.606;9.462;2022-09-09T11:08:39;100955.44;;;17.87;100.00
56292;BME280;54008;53.606;9.462;2022-09-09T11:11:24;100961.84;;;17.73;100.00
56292;BME280;54008;53.606;9.462;2022-09-09T11:16:56;100958.56;;;17.55;100.00
56292;BME280;54008;53.606;9.462;2022-09-09T11:19:27;100960.78;;;17.53;100.00
56292;BME280;54008;53.606;9.462;2022-09-09T11:21:55;100965.22;;;17.49;100.00
56292;BME280;54008;53.606;9.462;2022-09-09T11:24:36;100964.94;;;17.56;100.00
56292;BME280;54008;53.606;9.462;2022-09-09T11:27:15;100971.31;;;17.61;100.00
56292;BME280;54008;53.606;9.462;2022-09-09T11:30:04;100965.44;;;17.73;100.00
56292;BME280;54008;53.606;9.462;2022-09-09T11:33:04;100961.28;;;17.81;100.00
56292;BME280;54008;53.606;9.462;2022-09-09T11:38:27;100961.69;;;18.18;100.00
56292;BME280;54008;53.606;9.462;2022-09-09T11:41:04;100960.91;;;18.62;100.00
56292;BME280;54008;53.606;9.462;2022-09-09T11:43:41;100954.56;;;18.96;100.00
56292;BME280;54008;53.606;9.462;2022-09-09T11:46:08;100945.09;;;19.31;100.00
56292;BME280;54008;53.606;9.462;2022-09-09T11:48:39;100950.63;;;19.66;100.00
56292;BME280;54008;53.606;9.462;2022-09-09T11:51:24;100947.53;;;19.91;100.00
56292;BME280;54008;53.606;9.462;2022-09-09T11:56:43;100938.06;;;19.92;100.00
56292;BME280;54008;53.606;9.462;2022-09-09T11:59:23;100945.88;;;19.90;100.00
56292;BME280;54008;53.606;9.462;2022-09-09T12:02:00;100937.91;;;19.54;100.00
56292;BME280;54008;53.606;9.462;2022-09-09T12:04:28;100933.84;;;19.42;100.00
56292;BME280;54008;53.606;9.462;2022-09-09T12:07:25;100939.22;;;19.33;100.00
56292;BME280;54008;53.606;9.462;2022-09-09T12:12:44;100934.81;;;19.32;100.00
56292;BME280;54008;53.606;9.462;2022-09-09T12:17:46;100930.78;;;19.43;100.00
56292;BME280;54008;53.606;9.462;2022-09-09T12:31:18;100924.91;;;19.74;100.00
56292;BME280;54008;53.606;9.462;2022-09-09T12:33:47;100932.69;;;19.77;100.00
56292;BME280;54008;53.606;9.462;2022-09-09T12:36:22;100923.31;;;19.68;100.00
56292;BME280;54008;53.606;9.462;2022-09-09T12:38:50;100931.78;;;19.52;100.00
56292;BME280;54008;53.606;9.462;2022-09-09T12:41:22;100928.91;;;19.38;100.00
56292;BME280;54008;53.606;9.462;2022-09-09T12:43:48;100938.72;;;19.31;100.00
56292;BME280;54008;53.606;9.462;2022-09-09T12:46:36;100938.81;;;19.21;100.00
56292;BME280;54008;53.606;9.462;2022-09-09T12:49:03;100944.69;;;19.14;100.00
56292;BME280;54008;53.606;9.462;2022-09-09T12:51:31;100948.34;;;19.09;100.00
56292;BME280;54008;53.606;9.462;2022-09-09T12:53:59;100941.16;;;19.08;100.00
56292;BME280;54008;53.606;9.462;2022-09-09T12:56:30;100946.22;;;19.01;100.00
56292;BME280;54008;53.606;9.462;2022-09-09T12:58:57;100947.09;;;18.92;100.00
56292;BME280;54008;53.606;9.462;2022-09-09T13:01:29;100954.75;;;18.76;100.00
56292;BME280;54008;53.606;9.462;2022-09-09T13:03:55;100970.03;;;18.68;100.00
56292;BME280;54008;53.606;9.462;2022-09-09T13:06:29;100954.56;;;18.52;100.00
56292;BME280;54008;53.606;9.462;2022-09-09T13:09:00;100959.84;;;18.53;100.00
56292;BME280;54008;53.606;9.462;2022-09-09T13:11:39;100952.34;;;18.54;100.00
56292;BME280;54008;53.606;9.462;2022-09-09T13:14:19;100950.94;;;18.56;100.00
56292;BME280;54008;53.606;9.462;2022-09-09T13:16:59;100951.47;;;18.63;100.00
56292;BME280;54008;53.606;9.462;2022-09-09T13:19:58;100950.28;;;18.70;100.00
56292;BME280;54008;53.606;9.462;2022-09-09T13:26:05;100943.88;;;18.79;100.00
56292;BME280;54008;53.606;9.462;2022-09-09T14:00:17;100946.16;;;19.35;100.00
56292;BME280;54008;53.606;9.462;2022-09-09T14:02:42;100943.16;;;19.32;100.00
56292;BME280;54008;53.606;9.462;2022-09-09T14:05:09;100940.84;;;19.39;100.00
56292;BME280;54008;53.606;9.462;2022-09-09T14:07:36;100938.00;;;19.44;100.00
56292;BME280;54008;53.606;9.462;2022-09-09T14:10:04;100937.25;;;19.38;100.00
56292;BME280;54008;53.606;9.462;2022-09-09T14:12:29;100952.31;;;19.32;100.00
56292;BME280;54008;53.606;9.462;2022-09-09T14:14:55;100952.00;;;19.34;100.00
56292;BME280;54008;53.606;9.462;2022-09-09T14:17:23;100951.50;;;19.32;100.00
56292;BME280;54008;53.606;9.462;2022-09-09T14:19:50;100945.84;;;19.08;100.00
56292;BME280;54008;53.606;9.462;2022-09-09T14:22:15;100957.84;;;19.03;100.00
56292;BME280;54008;53.606;9.462;2022-09-09T14:24:41;100962.88;;;19.01;100.00
56292;BME280;54008;53.606;9.462;2022-09-09T14:27:06;100958.47;;;18.95;100.00
56292;BME280;54008;53.606;9.462;2022-09-09T14:29:31;100967.75;;;18.80;100.00
56292;BME280;54008;53.606;9.462;2022-09-09T14:31:58;100966.13;;;18.69;100.00
56292;BME280;54008;53.606;9.462;2022-09-09T14:34:26;100976.19;;;18.65;100.00
56292;BME280;54008;53.606;9.462;2022-09-09T14:36:51;100979.28;;;18.58;100.00
56292;BME280;54008;53.606;9.462;2022-09-09T14:39:17;100968.22;;;18.48;100.00
56292;BME280;54008;53.606;9.462;2022-09-09T14:41:42;100979.56;;;18.52;100.00
56292;BME280;54008;53.606;9.462;2022-09-09T14:44:07;100983.22;;;18.52;100.00
56292;BME280;54008;53.606;9.462;2022-09-09T14:46:33;100972.41;;;18.46;100.00
56292;BME280;54008;53.606;9.462;2022-09-09T14:48:59;100978.56;;;18.37;100.00
56292;BME280;54008;53.606;9.462;2022-09-09T14:51:25;100974.16;;;18.31;100.00
56292;BME280;54008;53.606;9.462;2022-09-09T14:53:55;100975.00;;;18.22;100.00